createdAt,value
2023-03-25T00:00:33.394Z,928.87
2023-03-25T00:01:33.407Z,928.87
2023-03-25T00:02:33.499Z,928.88
2023-03-25T00:03:33.323Z,928.89
2023-03-25T00:04:33.327Z,928.92
2023-03-25T00:05:33.299Z,928.90
2023-03-25T00:06:33.396Z,928.95
2023-03-25T00:07:33.499Z,928.96
2023-03-25T00:08:33.298Z,928.98
2023-03-25T00:09:33.218Z,929.00
2023-03-25T00:10:33.206Z,928.98
2023-03-25T00:11:33.312Z,928.98
2023-03-25T00:12:33.234Z,928.94
2023-03-25T00:13:33.534Z,928.93
2023-03-25T00:14:33.162Z,928.91
2023-03-25T00:15:33.160Z,928.88
2023-03-25T00:16:33.397Z,928.88
2023-03-25T00:17:33.249Z,928.89
2023-03-25T00:18:33.257Z,928.88
2023-03-25T00:19:33.431Z,928.91
2023-03-25T00:20:33.173Z,928.91
2023-03-25T00:21:33.175Z,928.92
2023-03-25T00:22:33.190Z,928.90
2023-03-25T00:23:33.207Z,928.92
2023-03-25T00:24:34.024Z,928.92
2023-03-25T00:25:33.423Z,928.92
2023-03-25T00:26:33.029Z,928.94
2023-03-25T00:27:33.122Z,928.95
2023-03-25T00:28:33.182Z,928.93
2023-03-25T00:29:33.097Z,928.91
2023-03-25T00:30:33.081Z,928.89
2023-03-25T00:31:33.059Z,928.85
2023-03-25T00:32:33.041Z,928.84
2023-03-25T00:33:33.059Z,928.83
2023-03-25T00:34:33.065Z,928.84
2023-03-25T00:35:32.976Z,928.84
2023-03-25T00:36:32.981Z,928.83
2023-03-25T00:37:32.991Z,928.81
2023-03-25T00:38:32.945Z,928.83
2023-03-25T00:39:32.903Z,928.83
2023-03-25T00:40:32.905Z,928.85
2023-03-25T00:41:33.047Z,928.85
2023-03-25T00:42:32.919Z,928.88
2023-03-25T00:43:32.924Z,928.90
2023-03-25T00:44:32.862Z,928.92
2023-03-25T00:45:32.874Z,928.91
2023-03-25T00:46:32.902Z,928.89
2023-03-25T00:47:33.014Z,928.86
2023-03-25T00:48:32.784Z,928.85
2023-03-25T00:49:33.065Z,928.85
2023-03-25T00:50:32.761Z,928.84
2023-03-25T00:51:32.807Z,928.84
2023-03-25T00:52:32.880Z,928.87
2023-03-25T00:53:33.027Z,928.86
2023-03-25T00:54:32.897Z,928.86
2023-03-25T00:55:32.834Z,928.87
2023-03-25T00:56:32.780Z,928.89
2023-03-25T00:57:32.756Z,928.89
2023-03-25T00:58:32.748Z,928.89
2023-03-25T00:59:33.471Z,928.88
2023-03-25T01:00:32.668Z,928.89
2023-03-25T01:01:32.674Z,928.89
2023-03-25T01:02:32.716Z,928.92
2023-03-25T01:03:32.739Z,928.88
2023-03-25T01:04:32.751Z,928.89
2023-03-25T01:05:32.693Z,928.91
2023-03-25T01:06:32.675Z,928.92
2023-03-25T01:07:32.609Z,928.98
2023-03-25T01:08:32.618Z,928.99
2023-03-25T01:09:32.622Z,928.98
2023-03-25T01:10:33.445Z,928.99
2023-03-25T01:11:33.453Z,928.99
2023-03-25T01:12:32.625Z,929.01
2023-03-25T01:13:32.540Z,929.00
2023-03-25T01:14:32.508Z,929.01
2023-03-25T01:15:32.659Z,929.04
2023-03-25T01:16:32.568Z,929.02
2023-03-25T01:17:32.524Z,929.05
2023-03-25T01:18:32.473Z,929.07
2023-03-25T01:19:32.480Z,929.07
2023-03-25T01:20:32.487Z,929.08
2023-03-25T01:21:32.594Z,929.09
2023-03-25T01:22:32.502Z,929.11
2023-03-25T01:23:32.404Z,929.10
2023-03-25T01:24:32.499Z,929.12
2023-03-25T01:25:32.619Z,929.13
2023-03-25T01:26:32.418Z,929.14
2023-03-25T01:27:32.436Z,929.14
2023-03-25T01:28:32.508Z,929.13
2023-03-25T01:29:32.347Z,929.12
2023-03-25T01:30:32.469Z,929.10
2023-03-25T01:31:32.496Z,929.09
2023-03-25T01:32:32.495Z,929.09
2023-03-25T01:33:32.367Z,929.06
2023-03-25T01:34:32.371Z,929.09
2023-03-25T01:35:33.119Z,929.10
2023-03-25T01:36:32.399Z,929.10
2023-03-25T01:37:32.511Z,929.10
2023-03-25T01:38:32.679Z,929.11
2023-03-25T01:39:32.337Z,929.14
2023-03-25T01:40:32.416Z,929.16
2023-03-25T01:41:42.663Z,929.15
2023-03-25T01:42:32.228Z,929.17
2023-03-25T01:43:32.310Z,929.16
2023-03-25T01:44:32.348Z,929.17
2023-03-25T01:45:32.250Z,929.17
2023-03-25T01:46:32.473Z,929.18
2023-03-25T01:47:32.387Z,929.21
2023-03-25T01:48:32.902Z,929.21
2023-03-25T01:49:32.220Z,929.22
2023-03-25T01:50:32.275Z,929.23
2023-03-25T01:51:32.289Z,929.22
2023-03-25T01:52:32.263Z,929.23
2023-03-25T01:53:32.278Z,929.19
2023-03-25T01:54:32.214Z,929.19
2023-03-25T01:55:32.187Z,929.15
2023-03-25T01:56:32.625Z,929.13
2023-03-25T01:57:32.122Z,929.13
2023-03-25T01:58:32.129Z,929.12
2023-03-25T01:59:32.104Z,929.15
2023-03-25T02:00:32.196Z,929.15
2023-03-25T02:01:32.048Z,929.16
2023-03-25T02:02:32.492Z,929.18
2023-03-25T02:03:32.127Z,929.20
2023-03-25T02:04:31.990Z,929.24
2023-03-25T02:05:32.063Z,929.28
2023-03-25T02:06:32.049Z,929.30
2023-03-25T02:07:32.016Z,929.31
2023-03-25T02:08:32.513Z,929.31
2023-03-25T02:09:31.966Z,929.32
2023-03-25T02:10:32.036Z,929.32
2023-03-25T02:11:32.013Z,929.33
2023-03-25T02:12:31.997Z,929.33
2023-03-25T02:13:31.950Z,929.34
2023-03-25T02:14:32.159Z,929.36
2023-03-25T02:15:31.967Z,929.36
2023-03-25T02:16:32.003Z,929.39
2023-03-25T02:17:31.935Z,929.39
2023-03-25T02:18:31.875Z,929.37
2023-03-25T02:19:31.893Z,929.34
2023-03-25T02:20:32.043Z,929.30
2023-03-25T02:21:31.895Z,929.28
2023-03-25T02:22:31.880Z,929.26
2023-03-25T02:23:31.852Z,929.25
2023-03-25T02:24:32.426Z,929.24
2023-03-25T02:25:31.885Z,929.24
2023-03-25T02:26:31.892Z,929.22
2023-03-25T02:27:31.806Z,929.22
2023-03-25T02:28:31.782Z,929.24
2023-03-25T02:29:31.793Z,929.25
2023-03-25T02:30:31.766Z,929.27
2023-03-25T02:31:31.791Z,929.28
2023-03-25T02:32:31.983Z,929.31
2023-03-25T02:33:31.764Z,929.31
2023-03-25T02:34:31.696Z,929.30
2023-03-25T02:35:31.720Z,929.30
2023-03-25T02:36:31.706Z,929.28
2023-03-25T02:37:31.760Z,929.26
2023-03-25T02:38:32.037Z,929.25
2023-03-25T02:39:31.721Z,929.25
2023-03-25T02:40:31.716Z,929.25
2023-03-25T02:41:31.631Z,929.27
2023-03-25T02:42:31.701Z,929.28
2023-03-25T02:43:31.655Z,929.29
2023-03-25T02:44:31.735Z,929.28
2023-03-25T02:45:31.639Z,929.27
2023-03-25T02:46:31.595Z,929.24
2023-03-25T02:47:31.710Z,929.22
2023-03-25T02:48:32.090Z,929.18
2023-03-25T02:49:31.601Z,929.14
2023-03-25T02:50:31.632Z,929.09
2023-03-25T02:51:31.713Z,929.05
2023-03-25T02:52:31.512Z,929.00
2023-03-25T02:53:31.590Z,929.00
2023-03-25T02:54:31.507Z,928.96
2023-03-25T02:55:31.494Z,928.94
2023-03-25T02:56:31.530Z,928.94
2023-03-25T02:57:31.446Z,928.92
2023-03-25T02:58:31.450Z,928.90
2023-03-25T02:59:31.460Z,928.87
2023-03-25T03:00:31.461Z,928.83
2023-03-25T03:01:31.501Z,928.83
2023-03-25T03:02:31.555Z,928.85
2023-03-25T03:03:31.474Z,928.81
2023-03-25T03:04:31.452Z,928.80
2023-03-25T03:05:31.478Z,928.79
2023-03-25T03:06:31.777Z,928.79
2023-03-25T03:07:31.473Z,928.77
2023-03-25T03:08:31.495Z,928.76
2023-03-25T03:09:31.321Z,928.77
2023-03-25T03:10:31.343Z,928.78
2023-03-25T03:11:31.329Z,928.79
2023-03-25T03:12:31.328Z,928.74
2023-03-25T03:13:31.336Z,928.73
2023-03-25T03:14:31.349Z,928.73
2023-03-25T03:15:31.249Z,928.71
2023-03-25T03:16:31.381Z,928.73
2023-03-25T03:17:31.324Z,928.72
2023-03-25T03:18:31.419Z,928.75
2023-03-25T03:19:31.346Z,928.78
2023-03-25T03:20:31.183Z,928.81
2023-03-25T03:21:31.192Z,928.79
2023-03-25T03:22:31.271Z,928.79
2023-03-25T03:23:31.206Z,928.77
2023-03-25T03:24:31.278Z,928.75
2023-03-25T03:25:31.192Z,928.76
2023-03-25T03:26:31.198Z,928.74
2023-03-25T03:27:31.706Z,928.73
2023-03-25T03:28:31.213Z,928.75
2023-03-25T03:29:31.142Z,928.76
2023-03-25T03:30:31.151Z,928.76
2023-03-25T03:31:48.150Z,928.78
2023-03-25T03:32:31.301Z,928.79
2023-03-25T03:33:31.066Z,928.82
2023-03-25T03:34:31.080Z,928.84
2023-03-25T03:35:31.199Z,928.87
2023-03-25T03:36:31.083Z,928.87
2023-03-25T03:37:32.036Z,928.88
2023-03-25T03:38:31.084Z,928.89
2023-03-25T03:39:31.009Z,928.88
2023-03-25T03:40:31.088Z,928.87
2023-03-25T03:41:31.099Z,928.85
2023-03-25T03:42:31.987Z,928.84
2023-03-25T03:43:31.034Z,928.82
2023-03-25T03:44:31.035Z,928.80
2023-03-25T03:45:31.757Z,928.78
2023-03-25T03:46:31.070Z,928.79
2023-03-25T03:47:31.039Z,928.78
2023-03-25T03:48:31.032Z,928.77
2023-03-25T03:49:31.264Z,928.75
2023-03-25T03:50:30.967Z,928.74
2023-03-25T03:51:30.957Z,928.72
2023-03-25T03:52:30.888Z,928.71
2023-03-25T03:53:30.888Z,928.70
2023-03-25T03:54:30.917Z,928.69
2023-03-25T03:55:31.702Z,928.69
2023-03-25T03:56:30.898Z,928.69
2023-03-25T03:57:30.827Z,928.68
2023-03-25T03:58:30.824Z,928.68
2023-03-25T03:59:31.129Z,928.67
2023-03-25T04:00:30.843Z,928.69
2023-03-25T04:01:30.955Z,928.68
2023-03-25T04:02:30.867Z,928.67
2023-03-25T04:03:30.826Z,928.67
2023-03-25T04:04:30.765Z,928.65
2023-03-25T04:05:30.959Z,928.63
2023-03-25T04:06:30.668Z,928.61
2023-03-25T04:07:30.763Z,928.60
2023-03-25T04:08:30.682Z,928.59
2023-03-25T04:09:30.691Z,928.57
2023-03-25T04:10:30.693Z,928.57
2023-03-25T04:11:30.650Z,928.57
2023-03-25T04:12:30.698Z,928.57
2023-03-25T04:13:30.669Z,928.57
2023-03-25T04:14:30.718Z,928.57
2023-03-25T04:15:30.627Z,928.55
2023-03-25T04:16:30.675Z,928.55
2023-03-25T04:17:30.548Z,928.54
2023-03-25T04:18:30.541Z,928.54
2023-03-25T04:19:30.549Z,928.53
2023-03-25T04:20:30.554Z,928.52
2023-03-25T04:21:30.558Z,928.52
2023-03-25T04:22:30.574Z,928.52
2023-03-25T04:23:30.459Z,928.52
2023-03-25T04:24:30.539Z,928.53
2023-03-25T04:25:30.471Z,928.52
2023-03-25T04:26:30.482Z,928.53
2023-03-25T04:27:30.485Z,928.53
2023-03-25T04:28:30.492Z,928.51
2023-03-25T04:29:30.466Z,928.50
2023-03-25T04:30:30.409Z,928.49
2023-03-25T04:31:30.452Z,928.48
2023-03-25T04:32:30.470Z,928.46
2023-03-25T04:33:30.492Z,928.44
2023-03-25T04:34:30.434Z,928.41
2023-03-25T04:35:30.444Z,928.40
2023-03-25T04:36:30.347Z,928.38
2023-03-25T04:37:30.354Z,928.38
2023-03-25T04:38:30.322Z,928.38
2023-03-25T04:39:30.371Z,928.37
2023-03-25T04:40:30.375Z,928.37
2023-03-25T04:41:30.334Z,928.37
2023-03-25T04:42:30.289Z,928.37
2023-03-25T04:43:30.300Z,928.37
2023-03-25T04:44:30.266Z,928.36
2023-03-25T04:45:30.371Z,928.35
2023-03-25T04:46:30.310Z,928.34
2023-03-25T04:47:30.261Z,928.32
2023-03-25T04:48:30.337Z,928.30
2023-03-25T04:49:30.238Z,928.30
2023-03-25T04:50:30.262Z,928.29
2023-03-25T04:51:30.223Z,928.29
2023-03-25T04:52:30.213Z,928.30
2023-03-25T04:53:30.210Z,928.29
2023-03-25T04:54:30.146Z,928.29
2023-03-25T04:55:30.150Z,928.29
2023-03-25T04:56:30.177Z,928.29
2023-03-25T04:57:30.180Z,928.28
2023-03-25T04:58:30.143Z,928.28
2023-03-25T04:59:30.150Z,928.27
2023-03-25T05:00:30.094Z,928.27
2023-03-25T05:01:30.091Z,928.26
2023-03-25T05:02:30.093Z,928.26
2023-03-25T05:03:30.110Z,928.26
2023-03-25T05:04:30.036Z,928.26
2023-03-25T05:05:30.101Z,928.28
2023-03-25T05:06:30.014Z,928.30
2023-03-25T05:07:30.009Z,928.31
2023-03-25T05:08:30.022Z,928.32
2023-03-25T05:09:30.008Z,928.31
2023-03-25T05:10:30.046Z,928.28
2023-03-25T05:11:30.033Z,928.25
2023-03-25T05:12:29.941Z,928.22
2023-03-25T05:13:29.921Z,928.22
2023-03-25T05:14:30.001Z,928.23
2023-03-25T05:15:29.956Z,928.26
2023-03-25T05:16:30.050Z,928.29
2023-03-25T05:17:29.963Z,928.31
2023-03-25T05:18:29.880Z,928.32
2023-03-25T05:19:29.923Z,928.32
2023-03-25T05:20:29.881Z,928.31
2023-03-25T05:21:29.895Z,928.31
2023-03-25T05:22:29.890Z,928.31
2023-03-25T05:23:29.816Z,928.30
2023-03-25T05:24:29.818Z,928.29
2023-03-25T05:25:29.836Z,928.28
2023-03-25T05:26:29.841Z,928.26
2023-03-25T05:27:29.840Z,928.24
2023-03-25T05:28:29.844Z,928.23
2023-03-25T05:29:29.749Z,928.23
2023-03-25T05:30:29.830Z,928.23
2023-03-25T05:31:29.805Z,928.22
2023-03-25T05:32:29.806Z,928.23
2023-03-25T05:33:29.787Z,928.22
2023-03-25T05:34:29.796Z,928.20
2023-03-25T05:35:29.720Z,928.18
2023-03-25T05:36:29.699Z,928.18
2023-03-25T05:37:29.726Z,928.17
2023-03-25T05:38:29.708Z,928.18
2023-03-25T05:39:29.711Z,928.19
2023-03-25T05:40:29.721Z,928.19
2023-03-25T05:41:29.629Z,928.19
2023-03-25T05:42:29.637Z,928.20
2023-03-25T05:43:29.657Z,928.20
2023-03-25T05:44:29.656Z,928.20
2023-03-25T05:45:29.653Z,928.19
2023-03-25T05:46:29.807Z,928.20
2023-03-25T05:47:29.588Z,928.19
2023-03-25T05:48:30.500Z,928.19
2023-03-25T05:49:29.590Z,928.17
2023-03-25T05:50:29.594Z,928.16
2023-03-25T05:51:29.614Z,928.15
2023-03-25T05:52:29.608Z,928.12
2023-03-25T05:53:29.508Z,928.10
2023-03-25T05:54:29.533Z,928.07
2023-03-25T05:55:29.543Z,928.05
2023-03-25T05:56:29.840Z,928.03
2023-03-25T05:57:29.535Z,928.03
2023-03-25T05:58:29.525Z,928.03
2023-03-25T05:59:29.464Z,928.05
2023-03-25T06:00:29.469Z,928.07
2023-03-25T06:01:33.725Z,928.09
2023-03-25T06:02:29.511Z,928.11
2023-03-25T06:03:29.570Z,928.12
2023-03-25T06:04:29.384Z,928.13
2023-03-25T06:05:29.493Z,928.13
2023-03-25T06:06:29.412Z,928.12
2023-03-25T06:07:29.417Z,928.13
2023-03-25T06:08:29.429Z,928.14
2023-03-25T06:09:29.550Z,928.14
2023-03-25T06:10:29.415Z,928.14
2023-03-25T06:11:29.377Z,928.14
2023-03-25T06:12:29.329Z,928.12
2023-03-25T06:13:29.723Z,928.10
2023-03-25T06:14:29.341Z,928.08
2023-03-25T06:15:29.670Z,928.07
2023-03-25T06:16:29.418Z,928.07
2023-03-25T06:17:29.642Z,928.06
2023-03-25T06:18:29.258Z,928.05
2023-03-25T06:19:29.391Z,928.02
2023-03-25T06:20:29.292Z,928.00
2023-03-25T06:21:29.361Z,927.97
2023-03-25T06:22:29.320Z,927.95
2023-03-25T06:23:29.287Z,927.93
2023-03-25T06:24:29.220Z,927.93
2023-03-25T06:25:29.701Z,927.93
2023-03-25T06:26:29.257Z,927.94
2023-03-25T06:27:30.116Z,927.96
2023-03-25T06:28:29.318Z,927.96
2023-03-25T06:29:29.211Z,927.98
2023-03-25T06:30:29.136Z,928.00
2023-03-25T06:31:29.381Z,928.01
2023-03-25T06:32:29.265Z,928.01
2023-03-25T06:33:43.027Z,928.01
2023-03-25T06:34:29.164Z,928.00
2023-03-25T06:35:29.146Z,927.99
2023-03-25T06:36:29.160Z,927.98
2023-03-25T06:37:29.578Z,927.98
2023-03-25T06:38:29.175Z,927.98
2023-03-25T06:39:29.076Z,927.97
2023-03-25T06:40:29.205Z,927.96
2023-03-25T06:41:29.087Z,927.95
2023-03-25T06:42:29.015Z,927.95
2023-03-25T06:43:29.103Z,927.94
2023-03-25T06:44:29.074Z,927.95
2023-03-25T06:45:29.144Z,927.95
2023-03-25T06:46:29.416Z,927.95
2023-03-25T06:47:29.057Z,927.94
2023-03-25T06:48:28.996Z,927.94
2023-03-25T06:49:29.044Z,927.93
2023-03-25T06:50:29.060Z,927.92
2023-03-25T06:51:29.058Z,927.91
2023-03-25T06:52:28.973Z,927.90
2023-03-25T06:53:29.126Z,927.89
2023-03-25T06:54:28.895Z,927.89
2023-03-25T06:55:28.900Z,927.89
2023-03-25T06:56:28.937Z,927.89
2023-03-25T06:57:28.950Z,927.89
2023-03-25T06:58:28.998Z,927.91
2023-03-25T06:59:28.833Z,927.94
2023-03-25T07:00:28.845Z,927.97
2023-03-25T07:01:28.913Z,927.99
2023-03-25T07:02:28.893Z,927.99
2023-03-25T07:03:28.861Z,927.99
2023-03-25T07:04:28.762Z,927.98
2023-03-25T07:05:29.755Z,927.96
2023-03-25T07:06:28.887Z,927.94
2023-03-25T07:07:28.787Z,927.92
2023-03-25T07:08:28.785Z,927.91
2023-03-25T07:09:28.819Z,927.91
2023-03-25T07:10:28.705Z,927.91
2023-03-25T07:11:28.714Z,927.91
2023-03-25T07:12:28.714Z,927.93
2023-03-25T07:13:28.734Z,927.95
2023-03-25T07:14:28.748Z,927.95
2023-03-25T07:15:28.732Z,927.96
2023-03-25T07:16:28.670Z,927.97
2023-03-25T07:17:28.670Z,927.98
2023-03-25T07:18:28.701Z,927.98
2023-03-25T07:19:28.688Z,927.97
2023-03-25T07:20:28.808Z,927.98
2023-03-25T07:21:29.210Z,927.98
2023-03-25T07:22:28.598Z,927.99
2023-03-25T07:23:28.608Z,927.99
2023-03-25T07:24:28.690Z,927.99
2023-03-25T07:25:28.629Z,927.99
2023-03-25T07:26:28.806Z,928.00
2023-03-25T07:27:28.531Z,928.00
2023-03-25T07:28:28.547Z,928.00
2023-03-25T07:29:28.533Z,928.00
2023-03-25T07:30:28.544Z,928.02
2023-03-25T07:31:28.591Z,928.03
2023-03-25T07:32:28.499Z,928.06
2023-03-25T07:33:28.474Z,928.07
2023-03-25T07:34:28.462Z,928.08
2023-03-25T07:35:28.600Z,928.10
2023-03-25T07:36:28.473Z,928.10
2023-03-25T07:37:28.482Z,928.11
2023-03-25T07:38:28.536Z,928.10
2023-03-25T07:39:28.413Z,928.09
2023-03-25T07:40:28.408Z,928.08
2023-03-25T07:41:28.581Z,928.05
2023-03-25T07:42:28.361Z,928.04
2023-03-25T07:43:28.410Z,928.03
2023-03-25T07:44:28.341Z,928.01
2023-03-25T07:45:28.403Z,928.02
2023-03-25T07:46:28.370Z,928.02
2023-03-25T07:47:28.366Z,928.04
2023-03-25T07:48:28.335Z,928.05
2023-03-25T07:49:28.349Z,928.07
2023-03-25T07:50:28.407Z,928.07
2023-03-25T07:51:28.270Z,928.08
2023-03-25T07:52:28.277Z,928.08
2023-03-25T07:53:28.284Z,928.09
2023-03-25T07:54:28.308Z,928.09
2023-03-25T07:55:28.242Z,928.11
2023-03-25T07:56:28.355Z,928.11
2023-03-25T07:57:28.212Z,928.12
2023-03-25T07:58:28.217Z,928.12
2023-03-25T07:59:29.366Z,928.13
2023-03-25T08:00:28.209Z,928.12
2023-03-25T08:01:28.173Z,928.11
2023-03-25T08:02:28.302Z,928.11
2023-03-25T08:03:28.259Z,928.10
2023-03-25T08:04:28.133Z,928.10
2023-03-25T08:05:28.160Z,928.09
2023-03-25T08:06:28.116Z,928.10
2023-03-25T08:07:28.153Z,928.11
2023-03-25T08:08:28.129Z,928.12
2023-03-25T08:09:28.067Z,928.13
2023-03-25T08:10:28.111Z,928.15
2023-03-25T08:11:28.076Z,928.16
2023-03-25T08:12:28.083Z,928.18
2023-03-25T08:13:28.097Z,928.20
2023-03-25T08:14:28.202Z,928.21
2023-03-25T08:15:28.032Z,928.22
2023-03-25T08:16:28.098Z,928.23
2023-03-25T08:17:28.096Z,928.23
2023-03-25T08:18:28.030Z,928.24
2023-03-25T08:19:28.062Z,928.24
2023-03-25T08:20:28.070Z,928.25
2023-03-25T08:21:27.987Z,928.25
2023-03-25T08:22:28.071Z,928.25
2023-03-25T08:23:27.954Z,928.25
2023-03-25T08:24:28.029Z,928.25
2023-03-25T08:25:28.048Z,928.24
2023-03-25T08:26:27.978Z,928.24
2023-03-25T08:27:28.087Z,928.24
2023-03-25T08:28:28.011Z,928.26
2023-03-25T08:29:27.899Z,928.28
2023-03-25T08:30:27.924Z,928.29
2023-03-25T08:31:27.936Z,928.31
2023-03-25T08:32:28.052Z,928.33
2023-03-25T08:33:27.941Z,928.35
2023-03-25T08:34:28.623Z,928.35
2023-03-25T08:35:27.920Z,928.35
2023-03-25T08:36:27.843Z,928.36
2023-03-25T08:37:27.848Z,928.36
2023-03-25T08:38:27.864Z,928.36
2023-03-25T08:39:27.865Z,928.36
2023-03-25T08:40:27.868Z,928.36
2023-03-25T08:41:27.773Z,928.36
2023-03-25T08:42:27.786Z,928.37
2023-03-25T08:43:27.797Z,928.37
2023-03-25T08:44:27.793Z,928.38
2023-03-25T08:45:27.778Z,928.38
2023-03-25T08:46:27.818Z,928.40
2023-03-25T08:47:27.831Z,928.40
2023-03-25T08:48:27.739Z,928.40
2023-03-25T08:49:27.703Z,928.40
2023-03-25T08:50:27.717Z,928.39
2023-03-25T08:51:27.716Z,928.40
2023-03-25T08:52:27.802Z,928.40
2023-03-25T08:53:27.708Z,928.40
2023-03-25T08:54:27.705Z,928.40
2023-03-25T08:55:27.644Z,928.40
2023-03-25T08:56:27.675Z,928.40
2023-03-25T08:57:27.657Z,928.40
2023-03-25T08:58:27.666Z,928.40
2023-03-25T08:59:27.668Z,928.40
2023-03-25T09:00:27.576Z,928.41
2023-03-25T09:01:27.643Z,928.41
2023-03-25T09:02:27.734Z,928.42
2023-03-25T09:03:27.628Z,928.42
2023-03-25T09:04:27.602Z,928.41
2023-03-25T09:05:27.594Z,928.41
2023-03-25T09:06:27.547Z,928.40
2023-03-25T09:07:27.552Z,928.39
2023-03-25T09:08:27.558Z,928.38
2023-03-25T09:09:27.529Z,928.39
2023-03-25T09:10:27.490Z,928.40
2023-03-25T09:11:36.616Z,928.41
2023-03-25T09:12:27.454Z,928.43
2023-03-25T09:13:27.455Z,928.43
2023-03-25T09:14:27.568Z,928.43
2023-03-25T09:15:27.382Z,928.42
2023-03-25T09:16:27.397Z,928.41
2023-03-25T09:17:27.381Z,928.40
2023-03-25T09:18:27.386Z,928.40
2023-03-25T09:19:27.381Z,928.41
2023-03-25T09:20:27.415Z,928.43
2023-03-25T09:21:27.316Z,928.45
2023-03-25T09:22:27.318Z,928.48
2023-03-25T09:23:27.327Z,928.50
2023-03-25T09:24:27.338Z,928.51
2023-03-25T09:25:27.330Z,928.50
2023-03-25T09:26:27.422Z,928.49
2023-03-25T09:27:27.241Z,928.49
2023-03-25T09:28:27.255Z,928.49
2023-03-25T09:29:27.241Z,928.51
2023-03-25T09:30:27.261Z,928.53
2023-03-25T09:31:27.343Z,928.56
2023-03-25T09:32:27.387Z,928.59
2023-03-25T09:33:27.191Z,928.61
2023-03-25T09:34:27.500Z,928.62
2023-03-25T09:35:27.341Z,928.63
2023-03-25T09:36:27.212Z,928.63
2023-03-25T09:37:27.204Z,928.62
2023-03-25T09:38:27.226Z,928.62
2023-03-25T09:39:27.123Z,928.61
2023-03-25T09:40:27.143Z,928.61
2023-03-25T09:41:27.151Z,928.61
2023-03-25T09:42:27.152Z,928.62
2023-03-25T09:43:27.136Z,928.63
2023-03-25T09:44:27.110Z,928.65
2023-03-25T09:45:27.124Z,928.66
2023-03-25T09:46:27.090Z,928.67
2023-03-25T09:47:27.171Z,928.68
2023-03-25T09:48:27.080Z,928.67
2023-03-25T09:49:27.795Z,928.67
2023-03-25T09:50:27.067Z,928.68
2023-03-25T09:51:27.093Z,928.68
2023-03-25T09:52:27.001Z,928.69
2023-03-25T09:53:27.651Z,928.71
2023-03-25T09:54:27.075Z,928.73
2023-03-25T09:55:27.057Z,928.75
2023-03-25T09:56:26.955Z,928.78
2023-03-25T09:57:26.959Z,928.79
2023-03-25T09:58:27.045Z,928.80
2023-03-25T09:59:26.965Z,928.81
2023-03-25T10:00:27.068Z,928.82
2023-03-25T10:01:27.778Z,928.82
2023-03-25T10:02:27.070Z,928.82
2023-03-25T10:03:26.893Z,928.82
2023-03-25T10:04:26.905Z,928.82
2023-03-25T10:05:26.898Z,928.82
2023-03-25T10:06:26.913Z,928.82
2023-03-25T10:07:26.820Z,928.84
2023-03-25T10:08:26.820Z,928.85
2023-03-25T10:09:26.906Z,928.86
2023-03-25T10:10:26.845Z,928.87
2023-03-25T10:11:26.846Z,928.88
2023-03-25T10:12:26.856Z,928.90
2023-03-25T10:13:26.828Z,928.92
2023-03-25T10:14:26.835Z,928.94
2023-03-25T10:15:26.791Z,928.97
2023-03-25T10:16:26.865Z,928.98
2023-03-25T10:17:27.425Z,929.00
2023-03-25T10:18:26.784Z,929.01
2023-03-25T10:19:26.877Z,929.01
2023-03-25T10:20:26.775Z,929.02
2023-03-25T10:21:26.800Z,929.03
2023-03-25T10:22:26.781Z,929.03
2023-03-25T10:23:26.729Z,929.02
2023-03-25T10:24:26.795Z,929.03
2023-03-25T10:25:26.718Z,929.04
2023-03-25T10:26:26.710Z,929.04
2023-03-25T10:27:26.717Z,929.04
2023-03-25T10:28:26.731Z,929.05
2023-03-25T10:29:26.721Z,929.05
2023-03-25T10:30:34.225Z,929.05
2023-03-25T10:31:26.765Z,929.06
2023-03-25T10:32:26.670Z,929.06
2023-03-25T10:33:26.593Z,929.07
2023-03-25T10:34:26.657Z,929.07
2023-03-25T10:35:26.687Z,929.09
2023-03-25T10:36:27.410Z,929.10
2023-03-25T10:37:26.692Z,929.10
2023-03-25T10:38:26.587Z,929.12
2023-03-25T10:39:26.608Z,929.12
2023-03-25T10:40:26.713Z,929.12
2023-03-25T10:41:26.619Z,929.11
2023-03-25T10:42:26.826Z,929.10
2023-03-25T10:43:26.613Z,929.09
2023-03-25T10:44:27.374Z,929.09
2023-03-25T10:45:26.539Z,929.09
2023-03-25T10:46:26.635Z,929.09
2023-03-25T10:47:26.590Z,929.11
2023-03-25T10:48:26.553Z,929.12
2023-03-25T10:49:26.361Z,929.14
2023-03-25T10:50:26.472Z,929.14
2023-03-25T10:51:26.427Z,929.14
2023-03-25T10:52:26.516Z,929.13
2023-03-25T10:53:26.470Z,929.13
2023-03-25T10:54:26.382Z,929.13
2023-03-25T10:55:26.381Z,929.13
2023-03-25T10:56:26.794Z,929.13
2023-03-25T10:57:26.535Z,929.14
2023-03-25T10:58:26.413Z,929.15
2023-03-25T10:59:26.371Z,929.16
2023-03-25T11:00:26.506Z,929.17
2023-03-25T11:01:26.299Z,929.16
2023-03-25T11:02:26.477Z,929.16
2023-03-25T11:03:26.398Z,929.16
2023-03-25T11:04:26.357Z,929.15
2023-03-25T11:05:26.349Z,929.14
2023-03-25T11:06:27.285Z,929.15
2023-03-25T11:07:26.256Z,929.16
2023-03-25T11:08:26.384Z,929.17
2023-03-25T11:09:26.285Z,929.17
2023-03-25T11:10:26.301Z,929.16
2023-03-25T11:11:26.300Z,929.16
2023-03-25T11:12:36.660Z,929.15
2023-03-25T11:13:26.308Z,929.15
2023-03-25T11:14:27.253Z,929.16
2023-03-25T11:15:26.237Z,929.17
2023-03-25T11:16:26.359Z,929.19
2023-03-25T11:17:26.247Z,929.20
2023-03-25T11:18:26.138Z,929.22
2023-03-25T11:19:26.161Z,929.23
2023-03-25T11:20:26.270Z,929.24
2023-03-25T11:21:26.068Z,929.24
2023-03-25T11:22:26.773Z,929.24
2023-03-25T11:23:26.173Z,929.24
2023-03-25T11:24:26.282Z,929.23
2023-03-25T11:25:26.093Z,929.24
2023-03-25T11:26:26.008Z,929.24
2023-03-25T11:27:26.107Z,929.25
2023-03-25T11:28:26.019Z,929.27
2023-03-25T11:29:26.123Z,929.29
2023-03-25T11:30:26.186Z,929.30
2023-03-25T11:31:26.122Z,929.32
2023-03-25T11:32:26.036Z,929.33
2023-03-25T11:33:26.045Z,929.35
2023-03-25T11:34:25.984Z,929.36
2023-03-25T11:35:26.036Z,929.36
2023-03-25T11:36:26.023Z,929.36
2023-03-25T11:37:25.898Z,929.35
2023-03-25T11:38:25.939Z,929.34
2023-03-25T11:39:25.946Z,929.33
2023-03-25T11:40:25.884Z,929.34
2023-03-25T11:41:26.202Z,929.35
2023-03-25T11:42:25.972Z,929.36
2023-03-25T11:43:25.867Z,929.37
2023-03-25T11:44:25.978Z,929.40
2023-03-25T11:45:25.883Z,929.41
2023-03-25T11:46:25.892Z,929.43
2023-03-25T11:47:25.894Z,929.44
2023-03-25T11:48:25.940Z,929.44
2023-03-25T11:49:25.829Z,929.44
2023-03-25T11:50:25.817Z,929.44
2023-03-25T11:51:25.823Z,929.45
2023-03-25T11:52:25.831Z,929.45
2023-03-25T11:53:25.799Z,929.46
2023-03-25T11:54:25.733Z,929.48
2023-03-25T11:55:25.847Z,929.47
2023-03-25T11:56:25.895Z,929.48
2023-03-25T11:57:29.604Z,929.48
2023-03-25T11:58:26.376Z,929.48
2023-03-25T11:59:25.776Z,929.48
2023-03-25T12:00:25.684Z,929.48
2023-03-25T12:01:25.777Z,929.48
2023-03-25T12:02:25.696Z,929.49
2023-03-25T12:03:25.736Z,929.50
2023-03-25T12:04:25.708Z,929.51
2023-03-25T12:05:25.614Z,929.51
2023-03-25T12:06:25.635Z,929.50
2023-03-25T12:07:25.563Z,929.51
2023-03-25T12:08:25.529Z,929.50
2023-03-25T12:09:25.745Z,929.51
2023-03-25T12:10:25.575Z,929.51
2023-03-25T12:11:25.526Z,929.52
2023-03-25T12:12:25.524Z,929.53
2023-03-25T12:13:25.567Z,929.54
2023-03-25T12:14:25.548Z,929.55
2023-03-25T12:15:25.584Z,929.55
2023-03-25T12:16:25.550Z,929.55
2023-03-25T12:17:25.592Z,929.54
2023-03-25T12:18:25.460Z,929.55
2023-03-25T12:19:25.490Z,929.56
2023-03-25T12:20:25.707Z,929.57
2023-03-25T12:21:27.179Z,929.59
2023-03-25T12:22:25.429Z,929.61
2023-03-25T12:23:25.416Z,929.62
2023-03-25T12:24:25.428Z,929.61
2023-03-25T12:25:25.521Z,929.61
2023-03-25T12:26:25.444Z,929.61
2023-03-25T12:27:25.453Z,929.60
2023-03-25T12:28:25.364Z,929.59